createdAt,value
2018-10-06T00:01:26.104Z,12.80
2018-10-06T00:03:54.226Z,12.80
2018-10-06T00:06:22.411Z,12.80
2018-10-06T00:08:50.620Z,12.80
2018-10-06T00:11:18.864Z,12.80
2018-10-06T00:13:46.983Z,12.90
2018-10-06T00:16:15.050Z,12.90
2018-10-06T00:18:43.138Z,12.90
2018-10-06T00:21:11.747Z,12.90
2018-10-06T00:23:39.827Z,12.90
2018-10-06T00:26:07.924Z,12.80
2018-10-06T00:28:36.005Z,12.80
2018-10-06T00:31:04.082Z,12.70
2018-10-06T00:33:32.190Z,12.70
2018-10-06T00:36:00.290Z,12.80
2018-10-06T00:38:28.390Z,12.70
2018-10-06T00:40:56.493Z,12.70
2018-10-06T00:43:24.574Z,12.60
2018-10-06T00:45:52.832Z,12.60
2018-10-06T00:48:20.911Z,12.60
2018-10-06T00:50:48.970Z,12.50
2018-10-06T00:53:17.123Z,12.50
2018-10-06T00:55:45.199Z,12.50
2018-10-06T00:58:13.346Z,12.60
2018-10-06T01:00:41.415Z,12.60
2018-10-06T01:03:09.712Z,12.60
2018-10-06T01:05:37.984Z,12.50
2018-10-06T01:08:06.063Z,12.50
2018-10-06T01:10:34.237Z,12.50
2018-10-06T01:13:02.308Z,12.60
2018-10-06T01:15:30.423Z,12.50
2018-10-06T01:17:58.754Z,12.50
2018-10-06T01:20:27.057Z,12.50
2018-10-06T01:22:55.164Z,12.50
2018-10-06T01:25:23.294Z,12.50
2018-10-06T01:27:51.384Z,12.40
2018-10-06T01:30:19.479Z,12.40
2018-10-06T01:32:47.564Z,12.40
2018-10-06T01:35:15.675Z,12.30
2018-10-06T01:37:43.854Z,12.30
2018-10-06T01:40:11.927Z,12.30
2018-10-06T01:42:40.023Z,12.30
2018-10-06T01:45:08.133Z,12.20
2018-10-06T01:50:04.404Z,12.20
2018-10-06T01:52:32.426Z,12.20
2018-10-06T01:55:00.500Z,12.30
2018-10-06T01:57:28.608Z,12.20
2018-10-06T01:59:56.694Z,12.20
2018-10-06T02:02:24.827Z,12.20
2018-10-06T02:04:52.930Z,12.10
2018-10-06T02:07:21.014Z,12.10
2018-10-06T02:09:49.280Z,12.10
2018-10-06T02:12:17.431Z,12.10
2018-10-06T02:14:45.515Z,12.10
2018-10-06T02:17:13.633Z,12.00
2018-10-06T02:19:41.711Z,12.00
2018-10-06T02:22:09.823Z,12.00
2018-10-06T02:24:37.900Z,12.00
2018-10-06T02:27:06.327Z,11.90
2018-10-06T02:29:34.426Z,11.90
2018-10-06T02:32:02.503Z,12.00
2018-10-06T02:34:30.598Z,11.90
2018-10-06T02:36:58.957Z,11.90
2018-10-06T02:39:26.932Z,11.90
2018-10-06T02:41:55.228Z,11.90
2018-10-06T02:44:23.315Z,11.80
2018-10-06T02:46:51.455Z,11.80
2018-10-06T02:49:19.582Z,11.80
2018-10-06T02:51:47.821Z,11.80
2018-10-06T02:54:15.957Z,11.70
2018-10-06T02:56:43.979Z,11.80
2018-10-06T02:59:12.911Z,11.80
2018-10-06T03:01:40.974Z,11.70
2018-10-06T03:04:09.054Z,11.70
2018-10-06T03:06:37.179Z,11.70
2018-10-06T03:09:06.858Z,11.70
2018-10-06T03:11:34.941Z,11.70
2018-10-06T03:14:03.241Z,11.70
2018-10-06T03:16:31.364Z,11.60
2018-10-06T03:18:59.459Z,11.60
2018-10-06T03:21:27.539Z,11.60
2018-10-06T03:23:55.894Z,11.60
2018-10-06T03:26:24.187Z,11.50
2018-10-06T03:28:52.345Z,11.50
2018-10-06T03:31:20.508Z,11.50
2018-10-06T03:33:48.607Z,11.50
2018-10-06T03:36:16.679Z,11.40
2018-10-06T03:38:44.750Z,11.40
2018-10-06T03:41:12.835Z,11.40
2018-10-06T03:43:40.979Z,11.30
2018-10-06T03:46:11.262Z,11.30
2018-10-06T03:48:39.355Z,11.30
2018-10-06T03:51:07.462Z,11.20
2018-10-06T03:53:35.776Z,11.20
2018-10-06T03:56:03.860Z,11.20
2018-10-06T03:58:32.126Z,11.20
2018-10-06T04:01:00.307Z,11.10
2018-10-06T04:03:28.584Z,11.10
2018-10-06T04:05:56.702Z,11.10
2018-10-06T04:08:24.775Z,11.10
2018-10-06T04:10:52.878Z,11.10
2018-10-06T04:13:20.963Z,11.10
2018-10-06T04:15:49.147Z,11.10
2018-10-06T04:18:17.214Z,11.00
2018-10-06T04:20:45.319Z,11.10
2018-10-06T04:23:13.403Z,11.10
2018-10-06T04:25:41.490Z,11.00
2018-10-06T04:28:09.561Z,11.00
2018-10-06T04:30:37.652Z,11.10
2018-10-06T04:33:05.911Z,11.10
2018-10-06T04:35:34.000Z,11.10
2018-10-06T04:38:02.141Z,11.10
2018-10-06T04:40:30.216Z,11.10
2018-10-06T04:42:58.307Z,11.00
2018-10-06T04:45:26.399Z,11.00
2018-10-06T04:47:54.483Z,11.00
2018-10-06T04:50:22.675Z,11.00
2018-10-06T04:52:51.496Z,10.90
2018-10-06T04:55:19.559Z,11.00
2018-10-06T04:57:47.618Z,10.90
2018-10-06T05:00:15.795Z,10.90
2018-10-06T05:02:43.857Z,10.90
2018-10-06T05:05:11.935Z,10.90
2018-10-06T05:07:40.019Z,10.90
2018-10-06T05:10:08.164Z,10.80
2018-10-06T05:12:36.637Z,10.90
2018-10-06T05:15:04.751Z,10.80
2018-10-06T05:17:32.830Z,10.80
2018-10-06T05:20:00.911Z,10.80
2018-10-06T05:22:29.540Z,10.80
2018-10-06T05:24:57.633Z,10.70
2018-10-06T05:27:25.728Z,10.70
2018-10-06T05:29:53.814Z,10.70
2018-10-06T05:32:21.874Z,10.80
2018-10-06T05:34:49.949Z,10.80
2018-10-06T05:37:18.022Z,10.80
2018-10-06T05:39:46.241Z,10.80
2018-10-06T05:42:14.324Z,10.80
2018-10-06T05:44:42.727Z,10.80
2018-10-06T05:47:10.820Z,10.80
2018-10-06T05:49:38.913Z,10.70
2018-10-06T05:52:07.034Z,10.80
2018-10-06T05:54:35.107Z,10.80
2018-10-06T05:57:03.209Z,10.80
2018-10-06T05:59:31.291Z,10.80
2018-10-06T06:01:59.398Z,10.80
2018-10-06T06:04:27.490Z,10.80
2018-10-06T06:06:55.574Z,10.80
2018-10-06T06:09:23.669Z,10.80
2018-10-06T06:11:51.768Z,10.80
2018-10-06T06:14:19.852Z,10.90
2018-10-06T06:16:48.254Z,10.90
2018-10-06T06:19:16.335Z,10.90
2018-10-06T06:21:44.415Z,10.90
2018-10-06T06:24:12.503Z,10.90
2018-10-06T06:26:40.615Z,11.00
2018-10-06T06:29:08.751Z,11.00
2018-10-06T06:31:36.907Z,11.00
2018-10-06T06:34:05.018Z,11.00
2018-10-06T06:36:33.314Z,11.00
2018-10-06T06:39:02.422Z,11.00
2018-10-06T06:41:31.404Z,11.10
2018-10-06T06:43:59.533Z,11.10
2018-10-06T06:46:27.569Z,11.10
2018-10-06T06:48:56.834Z,11.20
2018-10-06T06:51:24.925Z,11.20
2018-10-06T06:53:53.036Z,11.20
2018-10-06T06:56:21.150Z,11.30
2018-10-06T06:58:49.630Z,11.30
2018-10-06T07:01:17.786Z,11.30
2018-10-06T07:03:45.922Z,11.40
2018-10-06T07:06:14.216Z,11.40
2018-10-06T07:08:42.390Z,11.50
2018-10-06T07:11:10.471Z,11.60
2018-10-06T07:13:38.751Z,11.60
2018-10-06T07:16:07.360Z,11.60
2018-10-06T07:18:35.897Z,11.70
2018-10-06T07:21:03.919Z,11.80
2018-10-06T07:23:32.072Z,11.90
2018-10-06T07:26:00.172Z,12.00
2018-10-06T07:28:28.345Z,12.10
2018-10-06T07:30:56.411Z,12.20
2018-10-06T07:33:24.524Z,12.30
2018-10-06T07:35:52.593Z,12.40
2018-10-06T07:38:20.679Z,12.40
2018-10-06T07:40:48.756Z,12.50
2018-10-06T07:43:16.891Z,12.50
2018-10-06T07:45:44.979Z,12.80
2018-10-06T07:48:13.299Z,12.90
2018-10-06T07:50:41.382Z,13.00
2018-10-06T07:53:09.559Z,13.00
2018-10-06T07:55:37.599Z,13.00
2018-10-06T07:58:05.715Z,13.10
2018-10-06T08:00:33.804Z,13.20
2018-10-06T08:03:01.872Z,13.20
2018-10-06T08:05:29.986Z,13.30
2018-10-06T08:07:58.079Z,13.40
2018-10-06T08:10:26.183Z,13.50
2018-10-06T08:12:54.410Z,13.60
2018-10-06T08:15:22.631Z,13.70
2018-10-06T08:17:51.931Z,13.80
2018-10-06T08:20:20.015Z,13.90
2018-10-06T08:22:48.241Z,14.00
2018-10-06T08:25:17.970Z,14.10
2018-10-06T08:27:46.355Z,14.30
2018-10-06T08:30:14.446Z,14.60
2018-10-06T08:32:42.564Z,14.70
2018-10-06T08:35:10.719Z,14.60
2018-10-06T08:37:38.841Z,14.70
2018-10-06T08:40:06.936Z,14.80
2018-10-06T08:42:35.085Z,14.90
2018-10-06T08:45:03.190Z,15.10
2018-10-06T08:47:31.270Z,15.10
2018-10-06T08:49:59.371Z,15.10
2018-10-06T08:52:27.502Z,15.10
2018-10-06T08:54:55.584Z,15.10
2018-10-06T08:57:23.712Z,15.20
2018-10-06T08:59:51.871Z,15.30
2018-10-06T09:02:19.952Z,15.40
2018-10-06T09:04:48.091Z,15.50
2018-10-06T09:07:16.322Z,15.60
2018-10-06T09:09:44.430Z,15.60
2018-10-06T09:12:12.543Z,15.50
2018-10-06T09:14:40.667Z,15.60
2018-10-06T09:17:08.770Z,15.80
2018-10-06T09:19:36.887Z,15.90
2018-10-06T09:22:04.986Z,16.00
2018-10-06T09:24:33.058Z,16.00
2018-10-06T09:27:01.149Z,16.10
2018-10-06T09:29:29.226Z,16.20
2018-10-06T09:31:57.307Z,16.20
2018-10-06T09:34:25.431Z,16.30
2018-10-06T09:36:53.553Z,16.30
2018-10-06T09:39:21.651Z,16.40
2018-10-06T09:41:50.108Z,16.40
2018-10-06T09:44:18.187Z,16.40
2018-10-06T09:46:46.505Z,16.40
2018-10-06T09:49:14.599Z,16.40
2018-10-06T09:51:42.699Z,16.40
2018-10-06T09:54:10.779Z,16.50
2018-10-06T09:56:38.859Z,16.50
2018-10-06T09:59:07.107Z,16.70
2018-10-06T10:03:44.147Z,16.80
2018-10-06T10:06:12.247Z,16.80
2018-10-06T10:08:40.401Z,16.80
2018-10-06T10:11:08.500Z,16.90
2018-10-06T10:16:04.914Z,17.10
2018-10-06T10:18:33.073Z,17.20
2018-10-06T10:21:01.125Z,17.30
2018-10-06T10:23:29.288Z,17.40
2018-10-06T10:25:57.327Z,17.40
2018-10-06T10:28:25.498Z,17.50
2018-10-06T10:30:53.691Z,17.50
2018-10-06T10:33:21.795Z,17.60
2018-10-06T10:35:49.929Z,17.50
2018-10-06T10:38:18.022Z,17.60
2018-10-06T10:40:46.126Z,17.70
2018-10-06T10:43:14.200Z,17.70
2018-10-06T10:45:42.282Z,17.80
2018-10-06T10:48:10.389Z,17.90
2018-10-06T10:50:38.515Z,17.90
2018-10-06T10:53:06.588Z,17.90
2018-10-06T10:55:34.733Z,18.00
2018-10-06T10:58:02.996Z,18.10
2018-10-06T11:00:31.171Z,18.10
2018-10-06T11:02:59.420Z,18.30
2018-10-06T11:05:27.535Z,18.30
2018-10-06T11:07:55.879Z,18.30
2018-10-06T11:10:23.989Z,18.40
2018-10-06T11:12:52.189Z,18.50
2018-10-06T11:15:20.301Z,18.50
2018-10-06T11:17:48.451Z,18.60
2018-10-06T11:20:16.595Z,18.70
2018-10-06T11:22:44.695Z,18.70
2018-10-06T11:25:13.067Z,18.70
2018-10-06T11:27:41.366Z,18.70
2018-10-06T11:30:09.471Z,18.80
2018-10-06T11:32:37.559Z,18.90
2018-10-06T11:35:05.646Z,18.90
2018-10-06T11:37:33.786Z,18.90
2018-10-06T11:40:01.816Z,19.10
2018-10-06T11:42:30.455Z,19.10
2018-10-06T11:44:58.539Z,19.10
2018-10-06T11:47:26.653Z,19.00
2018-10-06T11:49:54.931Z,19.10
2018-10-06T11:52:23.049Z,19.10
2018-10-06T11:54:51.130Z,19.10
2018-10-06T11:57:19.221Z,19.30
2018-10-06T11:59:47.544Z,19.20
2018-10-06T12:02:15.634Z,19.30
2018-10-06T12:04:43.962Z,19.30
2018-10-06T12:07:12.051Z,19.30
2018-10-06T12:09:40.140Z,19.30
2018-10-06T12:12:08.251Z,19.30
2018-10-06T12:14:36.367Z,19.30
2018-10-06T12:17:04.438Z,19.30
2018-10-06T12:19:32.707Z,19.40
2018-10-06T12:22:00.865Z,19.50
2018-10-06T12:24:29.136Z,19.50
2018-10-06T12:26:57.250Z,19.60
2018-10-06T12:29:25.335Z,19.50
2018-10-06T12:31:53.454Z,19.50
2018-10-06T12:34:21.562Z,19.60
2018-10-06T12:36:50.370Z,19.60
2018-10-06T12:39:18.525Z,19.50
2018-10-06T12:41:46.626Z,19.50
2018-10-06T12:44:15.651Z,19.50
2018-10-06T12:46:43.763Z,19.60
2018-10-06T12:49:12.130Z,19.50
2018-10-06T12:51:40.395Z,19.70
2018-10-06T12:54:08.484Z,19.70
2018-10-06T12:56:36.634Z,19.80
2018-10-06T12:59:04.717Z,19.90
2018-10-06T13:01:32.830Z,20.00
2018-10-06T13:04:00.913Z,20.00
2018-10-06T13:06:29.308Z,20.00
2018-10-06T13:08:57.407Z,20.00
2018-10-06T13:11:25.587Z,20.00
2018-10-06T13:13:53.678Z,19.90
2018-10-06T13:16:21.793Z,20.00
2018-10-06T13:18:56.226Z,20.00
2018-10-06T13:21:24.349Z,19.90
2018-10-06T13:23:52.452Z,19.90
2018-10-06T13:26:20.539Z,20.00
2018-10-06T13:28:48.874Z,20.10
2018-10-06T13:31:16.962Z,20.00
2018-10-06T13:33:45.082Z,20.10
2018-10-06T13:36:13.158Z,20.10
2018-10-06T13:38:41.246Z,20.00
2018-10-06T13:41:09.391Z,19.90
2018-10-06T13:43:37.499Z,19.90
2018-10-06T13:46:05.599Z,20.00
2018-10-06T13:48:33.717Z,20.00
2018-10-06T13:51:01.810Z,20.10
2018-10-06T13:53:30.554Z,20.10
2018-10-06T13:55:58.783Z,20.10
2018-10-06T13:58:26.867Z,20.20
2018-10-06T14:00:54.974Z,20.10
2018-10-06T14:03:23.072Z,20.20
2018-10-06T14:05:51.264Z,20.30
2018-10-06T14:08:19.343Z,20.40
2018-10-06T14:10:47.419Z,20.30
2018-10-06T14:13:15.510Z,20.40
2018-10-06T14:15:43.590Z,20.40
2018-10-06T14:18:11.794Z,20.60
2018-10-06T14:20:40.554Z,20.80
2018-10-06T14:23:08.801Z,21.00
2018-10-06T14:25:36.934Z,21.10
2018-10-06T14:28:05.027Z,21.10
2018-10-06T14:30:33.122Z,20.90
2018-10-06T14:33:01.220Z,20.70
2018-10-06T14:35:29.546Z,20.60
2018-10-06T14:37:57.795Z,20.60
2018-10-06T14:40:25.858Z,20.50
2018-10-06T14:42:53.935Z,20.40
2018-10-06T14:45:22.163Z,20.40
2018-10-06T14:47:51.110Z,20.30
2018-10-06T14:50:19.303Z,20.30
2018-10-06T14:52:47.625Z,20.30
2018-10-06T14:55:15.934Z,20.20
2018-10-06T14:57:44.003Z,20.20
2018-10-06T15:00:12.123Z,20.20
2018-10-06T15:02:40.215Z,20.30
2018-10-06T15:05:08.307Z,20.20
2018-10-06T15:07:36.742Z,20.20
2018-10-06T15:10:05.040Z,20.20
2018-10-06T15:12:33.119Z,20.20
2018-10-06T15:15:01.241Z,20.10
2018-10-06T15:17:29.307Z,20.00
2018-10-06T15:19:57.391Z,20.10
2018-10-06T15:22:25.464Z,20.10
2018-10-06T15:24:53.571Z,20.10
2018-10-06T15:27:21.705Z,20.10
2018-10-06T15:29:49.797Z,20.10
2018-10-06T15:32:17.902Z,20.00
2018-10-06T15:34:46.051Z,19.90
2018-10-06T15:37:14.121Z,19.80
2018-10-06T15:39:42.378Z,19.80
2018-10-06T15:42:11.105Z,19.70
2018-10-06T15:44:39.240Z,19.70
2018-10-06T15:47:07.640Z,19.70
2018-10-06T15:49:35.941Z,19.60
2018-10-06T15:52:04.071Z,19.50
2018-10-06T15:54:32.137Z,19.50
2018-10-06T15:57:00.535Z,19.50
2018-10-06T15:59:28.684Z,19.40
2018-10-06T16:01:56.779Z,19.40
2018-10-06T16:04:24.873Z,19.40
2018-10-06T16:06:53.104Z,19.40
2018-10-06T16:09:21.379Z,19.30
2018-10-06T16:11:49.467Z,19.30
2018-10-06T16:14:17.646Z,19.30
2018-10-06T16:16:46.208Z,19.20
2018-10-06T16:19:14.337Z,19.10
2018-10-06T16:21:42.801Z,19.10
2018-10-06T16:24:10.918Z,19.00
2018-10-06T16:26:39.012Z,19.00
2018-10-06T16:29:07.152Z,18.90
2018-10-06T16:31:35.239Z,18.80
2018-10-06T16:34:03.365Z,18.80
2018-10-06T16:36:31.447Z,18.70
2018-10-06T16:38:59.870Z,18.60
2018-10-06T16:41:28.263Z,18.60
2018-10-06T16:43:56.407Z,18.50
2018-10-06T16:46:24.503Z,18.50
2018-10-06T16:48:52.611Z,18.40
2018-10-06T16:51:20.710Z,18.30
2018-10-06T16:53:48.799Z,18.20
2018-10-06T16:56:16.967Z,18.10
2018-10-06T16:58:45.063Z,18.10
2018-10-06T17:01:13.176Z,18.00
2018-10-06T17:03:41.272Z,17.90
2018-10-06T17:06:09.444Z,17.90
2018-10-06T17:08:37.535Z,17.80
2018-10-06T17:11:05.622Z,17.70
2018-10-06T17:13:33.715Z,17.60
2018-10-06T17:16:01.843Z,17.60
2018-10-06T17:18:30.005Z,17.50
2018-10-06T17:20:58.098Z,17.50
2018-10-06T17:23:26.227Z,17.40
2018-10-06T17:25:54.472Z,17.30
2018-10-06T17:28:22.679Z,17.30
2018-10-06T17:30:50.787Z,17.20
2018-10-06T17:33:18.914Z,17.10
2018-10-06T17:35:46.995Z,17.10
2018-10-06T17:38:15.104Z,16.90
2018-10-06T17:40:43.174Z,16.90
2018-10-06T17:43:11.268Z,16.80
2018-10-06T17:45:39.567Z,16.80
2018-10-06T17:48:07.942Z,16.80
2018-10-06T17:50:36.218Z,16.70
2018-10-06T17:53:04.474Z,16.70
2018-10-06T17:55:32.559Z,16.70
2018-10-06T17:58:00.658Z,16.70
2018-10-06T18:00:28.758Z,16.80
2018-10-06T18:02:56.862Z,16.80
2018-10-06T18:05:25.110Z,16.80
2018-10-06T18:07:53.266Z,16.80
2018-10-06T18:10:21.428Z,16.70
2018-10-06T18:12:49.508Z,16.70
2018-10-06T18:15:17.659Z,16.60
2018-10-06T18:17:45.789Z,16.60
2018-10-06T18:20:21.073Z,16.60
2018-10-06T18:22:49.198Z,16.60
2018-10-06T18:25:17.402Z,16.60
2018-10-06T18:27:45.848Z,16.50
2018-10-06T18:30:14.598Z,16.50
2018-10-06T18:32:42.722Z,16.50
2018-10-06T18:35:10.843Z,16.50
2018-10-06T18:37:38.964Z,16.50
2018-10-06T18:40:07.119Z,16.40
2018-10-06T18:42:36.261Z,16.40
2018-10-06T18:45:04.627Z,16.50
2018-10-06T18:47:33.139Z,16.50
2018-10-06T18:50:02.271Z,16.50
2018-10-06T18:52:30.475Z,16.50
2018-10-06T18:54:58.535Z,16.40
2018-10-06T18:57:26.726Z,16.30
2018-10-06T18:59:54.773Z,16.30
2018-10-06T19:02:22.898Z,16.20
2018-10-06T19:04:51.000Z,16.20
2018-10-06T19:07:19.127Z,16.10
2018-10-06T19:09:47.243Z,16.10
2018-10-06T19:12:15.323Z,16.00
2018-10-06T19:14:43.409Z,16.00
2018-10-06T19:17:11.679Z,16.00
2018-10-06T19:19:39.771Z,16.10
2018-10-06T19:22:07.884Z,16.10
2018-10-06T19:24:36.039Z,16.10
2018-10-06T19:27:04.123Z,16.10
2018-10-06T19:29:32.259Z,16.00
2018-10-06T19:32:00.355Z,16.00
2018-10-06T19:34:28.449Z,16.00
2018-10-06T19:36:56.546Z,16.00
2018-10-06T19:39:24.698Z,16.00
2018-10-06T19:41:52.861Z,16.00
2018-10-06T19:44:20.949Z,16.00
2018-10-06T19:46:49.062Z,16.00
2018-10-06T19:49:17.251Z,16.10
2018-10-06T19:51:45.434Z,16.10
2018-10-06T19:54:13.518Z,16.00
2018-10-06T19:56:41.662Z,16.00
2018-10-06T19:59:09.772Z,16.00
2018-10-06T20:01:37.931Z,16.00
2018-10-06T20:04:06.075Z,16.00
2018-10-06T20:06:34.183Z,16.00
2018-10-06T20:09:02.335Z,15.90
2018-10-06T20:11:30.442Z,16.00
2018-10-06T20:13:58.533Z,15.90
2018-10-06T20:16:26.635Z,15.90
2018-10-06T20:18:54.776Z,15.90
2018-10-06T20:21:22.839Z,15.90
2018-10-06T20:23:50.899Z,15.80
2018-10-06T20:26:19.012Z,15.90
2018-10-06T20:28:47.231Z,15.90
2018-10-06T20:31:15.327Z,15.80
2018-10-06T20:33:43.433Z,15.80
2018-10-06T20:36:11.522Z,15.80
2018-10-06T20:38:39.618Z,15.80
2018-10-06T20:41:07.791Z,15.80
2018-10-06T20:43:35.859Z,15.80
2018-10-06T20:46:04.180Z,15.70
2018-10-06T20:48:32.270Z,15.70
2018-10-06T20:51:00.362Z,15.60
2018-10-06T20:53:28.494Z,15.60
2018-10-06T20:55:56.674Z,15.60
2018-10-06T20:58:24.781Z,15.50
2018-10-06T21:00:52.871Z,15.50
2018-10-06T21:03:20.995Z,15.30
2018-10-06T21:05:49.083Z,15.30
2018-10-06T21:08:17.179Z,15.20
2018-10-06T21:10:45.307Z,15.20
2018-10-06T21:13:13.396Z,15.20
2018-10-06T21:15:41.550Z,15.20
2018-10-06T21:18:09.704Z,15.10
2018-10-06T21:20:37.772Z,15.10
2018-10-06T21:23:05.861Z,15.30
2018-10-06T21:25:33.960Z,15.20
2018-10-06T21:28:02.103Z,15.40
2018-10-06T21:30:30.317Z,15.60
2018-10-06T21:32:58.424Z,15.70
2018-10-06T21:35:26.528Z,15.90
2018-10-06T21:37:54.821Z,15.90
2018-10-06T21:40:22.891Z,15.90
2018-10-06T21:42:50.993Z,16.00
2018-10-06T21:45:19.083Z,16.00
2018-10-06T21:47:47.249Z,16.10
2018-10-06T21:50:15.354Z,16.10
2018-10-06T21:52:43.657Z,16.10
2018-10-06T21:55:11.738Z,16.20
2018-10-06T21:57:40.079Z,16.10
2018-10-06T22:00:08.389Z,16.10
2018-10-06T22:02:36.504Z,16.10
2018-10-06T22:05:05.211Z,16.10
2018-10-06T22:07:33.296Z,16.10
2018-10-06T22:10:01.909Z,16.10
2018-10-06T22:12:30.059Z,16.10
2018-10-06T22:14:58.146Z,16.10
2018-10-06T22:17:26.266Z,16.10
2018-10-06T22:19:54.383Z,16.00
2018-10-06T22:22:22.776Z,16.00
2018-10-06T22:24:50.957Z,16.00
2018-10-06T22:27:19.099Z,16.00
2018-10-06T22:29:47.199Z,16.00
2018-10-06T22:32:15.627Z,16.00
2018-10-06T22:34:43.692Z,16.00
2018-10-06T22:37:11.980Z,15.90
2018-10-06T22:39:40.123Z,15.90
2018-10-06T22:42:08.247Z,16.00
2018-10-06T22:44:36.352Z,15.90
2018-10-06T22:47:04.480Z,15.90
2018-10-06T22:49:32.593Z,15.90
2018-10-06T22:52:00.920Z,15.80
2018-10-06T22:54:29.012Z,15.80
2018-10-06T22:56:57.996Z,15.70
2018-10-06T22:59:26.067Z,15.70
2018-10-06T23:01:54.135Z,15.70
2018-10-06T23:04:22.348Z,15.70
2018-10-06T23:06:50.428Z,15.60
2018-10-06T23:09:18.514Z,15.60
2018-10-06T23:11:46.610Z,15.50
2018-10-06T23:14:14.711Z,15.50
2018-10-06T23:16:42.852Z,15.40
2018-10-06T23:19:10.954Z,15.30
2018-10-06T23:21:39.028Z,15.30
2018-10-06T23:24:07.177Z,15.20
2018-10-06T23:26:35.351Z,15.30
2018-10-06T23:29:03.619Z,15.30
2018-10-06T23:31:31.723Z,15.20
2018-10-06T23:33:59.894Z,15.20
2018-10-06T23:36:27.968Z,15.20
2018-10-06T23:38:56.037Z,15.20
2018-10-06T23:41:24.147Z,15.10
2018-10-06T23:43:52.238Z,15.00
2018-10-06T23:46:20.742Z,15.00
2018-10-06T23:48:49.040Z,14.90
2018-10-06T23:51:17.159Z,14.80
2018-10-06T23:53:45.241Z,14.80
2018-10-06T23:56:13.599Z,14.70
2018-10-06T23:58:42.230Z,14.70
